THY9634 LYBE-LTBJ
Flight info
| Callsign | THY9634 |
|---|---|
| Flight time | 1h 23m |
| Altitude | 39000 |
| Route | TPL DCT RAXAD DCT RUGAS UN128 RIKSO |
| Aircraft | B738/M-SDE2E3FGHIRWXY/LB1 |
Departure
| Time | 2026-05-04 18:47 |
|---|---|
| Airport | Belgrade Nikola Tesla Airport (LYBE) |
Arrival
| Time | 2026-05-04 20:10 |
|---|---|
| Airport | Adnan Menderes International Airport (LTBJ) |
| Time | Latitude | Longitude | Altitude | Speed | Heading |
|---|---|---|---|---|---|
| 2026-05-04 18:28 | 44.81976 | 20.29308 | 326 ft | 0 kts | 302° |
| 2026-05-04 18:38 | 44.81969 | 20.29322 | 326 ft | 2 kts | 301° |
| 2026-05-04 18:38 | 44.81961 | 20.29341 | 326 ft | 2 kts | 302° |
| 2026-05-04 18:38 | 44.81953 | 20.29358 | 326 ft | 2 kts | 302° |
| 2026-05-04 18:38 | 44.81944 | 20.29374 | 326 ft | 2 kts | 340° |
| 2026-05-04 18:39 | 44.81930 | 20.29374 | 326 ft | 1 kts | 26° |
| 2026-05-04 18:39 | 44.81925 | 20.29369 | 326 ft | 1 kts | 35° |
| 2026-05-04 18:39 | 44.81923 | 20.29367 | 326 ft | 0 kts | 33° |
| 2026-05-04 18:41 | 44.81925 | 20.29369 | 326 ft | 1 kts | 33° |
| 2026-05-04 18:41 | 44.81934 | 20.29378 | 326 ft | 2 kts | 33° |
| 2026-05-04 18:42 | 44.81947 | 20.29390 | 326 ft | 2 kts | 33° |
| 2026-05-04 18:42 | 44.81964 | 20.29405 | 326 ft | 3 kts | 33° |
| 2026-05-04 18:42 | 44.82004 | 20.29441 | 327 ft | 9 kts | 32° |
| 2026-05-04 18:42 | 44.82077 | 20.29463 | 327 ft | 13 kts | 332° |
| 2026-05-04 18:43 | 44.82141 | 20.29345 | 326 ft | 15 kts | 303° |
| 2026-05-04 18:43 | 44.82196 | 20.29213 | 326 ft | 15 kts | 300° |
| 2026-05-04 18:43 | 44.82271 | 20.29129 | 325 ft | 14 kts | 358° |
| 2026-05-04 18:43 | 44.82348 | 20.29064 | 325 ft | 12 kts | 306° |
| 2026-05-04 18:44 | 44.82394 | 20.28959 | 324 ft | 12 kts | 300° |
| 2026-05-04 18:44 | 44.82426 | 20.28891 | 324 ft | 12 kts | 311° |
| 2026-05-04 18:44 | 44.82514 | 20.28859 | 324 ft | 9 kts | 20° |
| 2026-05-04 18:44 | 44.82565 | 20.28905 | 324 ft | 8 kts | 40° |
| 2026-05-04 18:45 | 44.82600 | 20.28959 | 324 ft | 6 kts | 59° |
| 2026-05-04 18:45 | 44.82612 | 20.29014 | 324 ft | 5 kts | 82° |
| 2026-05-04 18:45 | 44.82616 | 20.29061 | 324 ft | 4 kts | 83° |
| 2026-05-04 18:45 | 44.82621 | 20.29145 | 324 ft | 11 kts | 94° |
| 2026-05-04 18:46 | 44.82590 | 20.29238 | 325 ft | 9 kts | 123° |
| 2026-05-04 18:46 | 44.82509 | 20.29413 | 326 ft | 55 kts | 120° |
| 2026-05-04 18:46 | 44.82153 | 20.30226 | 332 ft | 139 kts | 121° |
| 2026-05-04 18:46 | 44.81525 | 20.31581 | 661 ft | 180 kts | 119° |
| 2026-05-04 18:47 | 44.80874 | 20.33114 | 1582 ft | 194 kts | 124° |
| 2026-05-04 18:47 | 44.79783 | 20.34325 | 2378 ft | 212 kts | 161° |
| 2026-05-04 18:47 | 44.78310 | 20.34629 | 3241 ft | 219 kts | 175° |
| 2026-05-04 18:47 | 44.76739 | 20.34730 | 3821 ft | 241 kts | 175° |
| 2026-05-04 18:48 | 44.75056 | 20.34908 | 4815 ft | 245 kts | 173° |
| 2026-05-04 18:48 | 44.73365 | 20.35149 | 5709 ft | 253 kts | 172° |
| 2026-05-04 18:48 | 44.71585 | 20.35426 | 5994 ft | 259 kts | 172° |
| 2026-05-04 18:48 | 44.69804 | 20.35706 | 6023 ft | 260 kts | 172° |
| 2026-05-04 18:49 | 44.67966 | 20.35992 | 6833 ft | 267 kts | 172° |
| 2026-05-04 18:49 | 44.66160 | 20.36268 | 7980 ft | 263 kts | 172° |
| 2026-05-04 18:49 | 44.64355 | 20.36545 | 8914 ft | 267 kts | 172° |
| 2026-05-04 18:49 | 44.62527 | 20.37009 | 9587 ft | 278 kts | 157° |
| 2026-05-04 18:50 | 44.60791 | 20.38324 | 10234 ft | 290 kts | 143° |
| 2026-05-04 18:50 | 44.59107 | 20.40010 | 10834 ft | 305 kts | 142° |
| 2026-05-04 18:50 | 44.57313 | 20.41748 | 11401 ft | 322 kts | 143° |
| 2026-05-04 18:50 | 44.55394 | 20.43469 | 11924 ft | 339 kts | 145° |
| 2026-05-04 18:51 | 44.53347 | 20.45216 | 12478 ft | 354 kts | 146° |
| 2026-05-04 18:51 | 44.51214 | 20.46992 | 13289 ft | 360 kts | 146° |
| 2026-05-04 18:51 | 44.49068 | 20.48766 | 14126 ft | 364 kts | 146° |
| 2026-05-04 18:51 | 44.46881 | 20.50583 | 14924 ft | 370 kts | 146° |
| 2026-05-04 18:52 | 44.44637 | 20.52453 | 15724 ft | 375 kts | 146° |
| 2026-05-04 18:52 | 44.42406 | 20.54317 | 16499 ft | 380 kts | 146° |
| 2026-05-04 18:52 | 44.40122 | 20.56227 | 17256 ft | 386 kts | 146° |
| 2026-05-04 18:52 | 44.37819 | 20.58152 | 18005 ft | 390 kts | 146° |
| 2026-05-04 18:53 | 44.35477 | 20.60105 | 18738 ft | 395 kts | 146° |
| 2026-05-04 18:53 | 44.33103 | 20.62082 | 19434 ft | 400 kts | 146° |
| 2026-05-04 18:53 | 44.30702 | 20.64078 | 20144 ft | 404 kts | 146° |
| 2026-05-04 18:53 | 44.28286 | 20.66096 | 20770 ft | 410 kts | 146° |
| 2026-05-04 18:54 | 44.25823 | 20.68158 | 21410 ft | 415 kts | 147° |
| 2026-05-04 18:54 | 44.23349 | 20.70228 | 22045 ft | 420 kts | 147° |
| 2026-05-04 18:54 | 44.20833 | 20.72328 | 22651 ft | 425 kts | 147° |
| 2026-05-04 18:54 | 44.18289 | 20.74446 | 23241 ft | 430 kts | 147° |
| 2026-05-04 18:55 | 44.15709 | 20.76589 | 23835 ft | 434 kts | 147° |
| 2026-05-04 18:55 | 44.10493 | 20.80906 | 25053 ft | 442 kts | 147° |
| 2026-05-04 18:55 | 44.07848 | 20.83091 | 25597 ft | 446 kts | 147° |
| 2026-05-04 18:56 | 44.05200 | 20.85276 | 26118 ft | 451 kts | 147° |
| 2026-05-04 18:56 | 44.02504 | 20.87498 | 26719 ft | 453 kts | 147° |
| 2026-05-04 18:56 | 43.99777 | 20.89743 | 27244 ft | 457 kts | 147° |
| 2026-05-04 18:56 | 43.97016 | 20.92014 | 27737 ft | 461 kts | 147° |
| 2026-05-04 18:57 | 43.94278 | 20.94263 | 28230 ft | 465 kts | 147° |
| 2026-05-04 18:57 | 43.91469 | 20.96568 | 28687 ft | 470 kts | 147° |
| 2026-05-04 18:57 | 43.88656 | 20.98873 | 29140 ft | 474 kts | 147° |
| 2026-05-04 18:57 | 43.85824 | 21.01193 | 29609 ft | 477 kts | 147° |
| 2026-05-04 18:58 | 43.82934 | 21.03557 | 30074 ft | 480 kts | 147° |
| 2026-05-04 18:58 | 43.80080 | 21.05889 | 30581 ft | 482 kts | 147° |
| 2026-05-04 18:58 | 43.77199 | 21.08239 | 31313 ft | 478 kts | 147° |
| 2026-05-04 18:58 | 43.74371 | 21.10542 | 31963 ft | 475 kts | 148° |
| 2026-05-04 18:59 | 43.71491 | 21.12884 | 32418 ft | 477 kts | 147° |
| 2026-05-04 18:59 | 43.68652 | 21.15190 | 32975 ft | 476 kts | 148° |
| 2026-05-04 18:59 | 43.65734 | 21.17560 | 33109 ft | 482 kts | 148° |
| 2026-05-04 18:59 | 43.62824 | 21.19921 | 33118 ft | 482 kts | 147° |
| 2026-05-04 19:00 | 43.57087 | 21.24565 | 33119 ft | 473 kts | 147° |
| 2026-05-04 19:00 | 43.51439 | 21.29127 | 33121 ft | 474 kts | 147° |
| 2026-05-04 19:01 | 43.45705 | 21.33753 | 33120 ft | 474 kts | 147° |
| 2026-05-04 19:01 | 43.40043 | 21.38309 | 33121 ft | 474 kts | 148° |
| 2026-05-04 19:02 | 43.34367 | 21.42866 | 33125 ft | 473 kts | 148° |
| 2026-05-04 19:02 | 43.28661 | 21.47437 | 33117 ft | 473 kts | 148° |
| 2026-05-04 19:03 | 43.23012 | 21.51957 | 33121 ft | 472 kts | 148° |
| 2026-05-04 19:03 | 43.17331 | 21.56486 | 33125 ft | 472 kts | 148° |
| 2026-05-04 19:04 | 43.11686 | 21.60976 | 33126 ft | 471 kts | 148° |
| 2026-05-04 19:04 | 43.06027 | 21.65469 | 33132 ft | 469 kts | 149° |
| 2026-05-04 19:05 | 43.00366 | 21.69953 | 33126 ft | 468 kts | 149° |
| 2026-05-04 19:05 | 42.94765 | 21.74382 | 33130 ft | 468 kts | 149° |
| 2026-05-04 19:06 | 42.89105 | 21.78849 | 33130 ft | 468 kts | 149° |
| 2026-05-04 19:06 | 42.83481 | 21.83278 | 33130 ft | 467 kts | 149° |
| 2026-05-04 19:07 | 42.77456 | 21.88011 | 33135 ft | 469 kts | 149° |
| 2026-05-04 19:07 | 42.71780 | 21.92460 | 33140 ft | 468 kts | 149° |
| 2026-05-04 19:08 | 42.66146 | 21.96867 | 33142 ft | 467 kts | 149° |
| 2026-05-04 19:08 | 42.60484 | 22.01287 | 33143 ft | 466 kts | 149° |
| 2026-05-04 19:09 | 42.54900 | 22.05636 | 33154 ft | 466 kts | 149° |
| 2026-05-04 19:09 | 42.49276 | 22.10008 | 33158 ft | 467 kts | 149° |
| 2026-05-04 19:10 | 42.43671 | 22.14355 | 33151 ft | 464 kts | 149° |
| 2026-05-04 19:10 | 42.38077 | 22.18684 | 33164 ft | 464 kts | 149° |
| 2026-05-04 19:11 | 42.32449 | 22.23034 | 33158 ft | 463 kts | 149° |
| 2026-05-04 19:11 | 42.26716 | 22.26979 | 33154 ft | 465 kts | 155° |
| 2026-05-04 19:12 | 42.17734 | 22.31979 | 34067 ft | 466 kts | 157° |
| 2026-05-04 19:12 | 42.14728 | 22.33611 | 34334 ft | 469 kts | 156° |
| 2026-05-04 19:13 | 42.11675 | 22.35282 | 34682 ft | 471 kts | 156° |
| 2026-05-04 19:13 | 42.08661 | 22.36945 | 35182 ft | 467 kts | 156° |
| 2026-05-04 19:13 | 42.05680 | 22.38598 | 35604 ft | 466 kts | 156° |
| 2026-05-04 19:13 | 42.02667 | 22.40279 | 35873 ft | 468 kts | 156° |
| 2026-05-04 19:14 | 41.99651 | 22.41967 | 36236 ft | 468 kts | 156° |
| 2026-05-04 19:14 | 41.96663 | 22.43643 | 36676 ft | 466 kts | 156° |
| 2026-05-04 19:14 | 41.93684 | 22.45317 | 37045 ft | 467 kts | 156° |
| 2026-05-04 19:14 | 41.90656 | 22.47018 | 37439 ft | 466 kts | 156° |
| 2026-05-04 19:15 | 41.87691 | 22.48683 | 37729 ft | 467 kts | 156° |
| 2026-05-04 19:15 | 41.84691 | 22.50367 | 37983 ft | 468 kts | 156° |
| 2026-05-04 19:15 | 41.81683 | 22.52054 | 38315 ft | 467 kts | 156° |
| 2026-05-04 19:15 | 41.78685 | 22.53734 | 38565 ft | 467 kts | 156° |
| 2026-05-04 19:16 | 41.75712 | 22.55397 | 38829 ft | 467 kts | 156° |
| 2026-05-04 19:16 | 41.72695 | 22.57083 | 39028 ft | 469 kts | 156° |
| 2026-05-04 19:16 | 41.69676 | 22.58769 | 39141 ft | 472 kts | 156° |
| 2026-05-04 19:17 | 41.63619 | 22.62146 | 39130 ft | 472 kts | 156° |
| 2026-05-04 19:17 | 41.57535 | 22.65531 | 39124 ft | 469 kts | 157° |
| 2026-05-04 19:18 | 41.51516 | 22.68872 | 39110 ft | 470 kts | 157° |
| 2026-05-04 19:18 | 41.45477 | 22.72220 | 39093 ft | 471 kts | 157° |
| 2026-05-04 19:19 | 41.39423 | 22.75570 | 39092 ft | 471 kts | 157° |
| 2026-05-04 19:19 | 41.33428 | 22.79030 | 39104 ft | 471 kts | 153° |
| 2026-05-04 19:20 | 41.27786 | 22.83347 | 39096 ft | 470 kts | 146° |
| 2026-05-04 19:20 | 41.22344 | 22.88108 | 39095 ft | 470 kts | 145° |
| 2026-05-04 19:21 | 41.16918 | 22.92937 | 39090 ft | 470 kts | 145° |
| 2026-05-04 19:21 | 41.11579 | 22.97928 | 39083 ft | 469 kts | 138° |
| 2026-05-04 19:22 | 41.07173 | 23.04189 | 39089 ft | 467 kts | 124° |
| 2026-05-04 19:22 | 41.03450 | 23.11247 | 39091 ft | 464 kts | 121° |
| 2026-05-04 19:23 | 40.99947 | 23.18382 | 39083 ft | 463 kts | 120° |
| 2026-05-04 19:23 | 40.96416 | 23.25490 | 39083 ft | 465 kts | 121° |
| 2026-05-04 19:24 | 40.92823 | 23.32599 | 39082 ft | 464 kts | 121° |
| 2026-05-04 19:24 | 40.89246 | 23.39611 | 39073 ft | 463 kts | 121° |
| 2026-05-04 19:25 | 40.85627 | 23.46670 | 39075 ft | 464 kts | 121° |
| 2026-05-04 19:25 | 40.82000 | 23.53715 | 39075 ft | 465 kts | 121° |
| 2026-05-04 19:26 | 40.78366 | 23.60760 | 39069 ft | 463 kts | 121° |
| 2026-05-04 19:26 | 40.74747 | 23.67766 | 39067 ft | 464 kts | 122° |
| 2026-05-04 19:27 | 40.71112 | 23.74786 | 39074 ft | 465 kts | 122° |
| 2026-05-04 19:27 | 40.67455 | 23.81829 | 39074 ft | 464 kts | 122° |
| 2026-05-04 19:28 | 40.63817 | 23.88817 | 39071 ft | 464 kts | 122° |
| 2026-05-04 19:28 | 40.60171 | 23.95804 | 39079 ft | 463 kts | 122° |
| 2026-05-04 19:29 | 40.56545 | 24.02737 | 39079 ft | 465 kts | 122° |
| 2026-05-04 19:29 | 40.52869 | 24.09751 | 39076 ft | 466 kts | 122° |
| 2026-05-04 19:30 | 40.49186 | 24.16764 | 39072 ft | 464 kts | 122° |
| 2026-05-04 19:30 | 40.45506 | 24.23750 | 39077 ft | 465 kts | 122° |
| 2026-05-04 19:31 | 40.41827 | 24.30719 | 39072 ft | 465 kts | 122° |
| 2026-05-04 19:31 | 40.38119 | 24.37726 | 39079 ft | 465 kts | 122° |
| 2026-05-04 19:32 | 40.34423 | 24.44701 | 39080 ft | 466 kts | 122° |
| 2026-05-04 19:32 | 40.30708 | 24.51690 | 39075 ft | 466 kts | 122° |
| 2026-05-04 19:33 | 40.27027 | 24.58602 | 39092 ft | 466 kts | 122° |
| 2026-05-04 19:33 | 40.23317 | 24.65554 | 39098 ft | 466 kts | 123° |
| 2026-05-04 19:34 | 40.19593 | 24.72509 | 39089 ft | 466 kts | 123° |
| 2026-05-04 19:34 | 40.15886 | 24.79426 | 39083 ft | 467 kts | 122° |
| 2026-05-04 19:35 | 40.12149 | 24.86381 | 39085 ft | 466 kts | 123° |
| 2026-05-04 19:35 | 40.08434 | 24.93281 | 39088 ft | 466 kts | 123° |
| 2026-05-04 19:36 | 40.04723 | 25.00157 | 39083 ft | 465 kts | 122° |
| 2026-05-04 19:36 | 40.00994 | 25.07055 | 39079 ft | 467 kts | 122° |
| 2026-05-04 19:37 | 39.97237 | 25.13986 | 39072 ft | 468 kts | 122° |
| 2026-05-04 19:37 | 39.93449 | 25.20872 | 39074 ft | 468 kts | 124° |
| 2026-05-04 19:38 | 39.89140 | 25.27195 | 39081 ft | 472 kts | 134° |
| 2026-05-04 19:38 | 39.84208 | 25.32920 | 39066 ft | 472 kts | 137° |
| 2026-05-04 19:39 | 39.79210 | 25.38429 | 39078 ft | 472 kts | 137° |
| 2026-05-04 19:39 | 39.74192 | 25.43979 | 39077 ft | 473 kts | 137° |
| 2026-05-04 19:40 | 39.69205 | 25.49551 | 39094 ft | 475 kts | 137° |
| 2026-05-04 19:40 | 39.64233 | 25.55142 | 39083 ft | 474 kts | 137° |
| 2026-05-04 19:41 | 39.59242 | 25.60756 | 39083 ft | 474 kts | 137° |
| 2026-05-04 19:41 | 39.54249 | 25.66359 | 39078 ft | 473 kts | 137° |
| 2026-05-04 19:42 | 39.49287 | 25.71924 | 39074 ft | 475 kts | 137° |
| 2026-05-04 19:42 | 39.44280 | 25.77529 | 39083 ft | 475 kts | 137° |
| 2026-05-04 19:43 | 39.39285 | 25.83109 | 39076 ft | 476 kts | 137° |
| 2026-05-04 19:43 | 39.34260 | 25.88713 | 39086 ft | 476 kts | 138° |
| 2026-05-04 19:44 | 39.29258 | 25.94279 | 39091 ft | 476 kts | 138° |
| 2026-05-04 19:44 | 39.26722 | 25.97071 | 38919 ft | 481 kts | 139° |
| 2026-05-04 19:44 | 39.24145 | 25.99863 | 38679 ft | 481 kts | 139° |
| 2026-05-04 19:44 | 39.21621 | 26.02565 | 38436 ft | 477 kts | 139° |
| 2026-05-04 19:45 | 39.19054 | 26.05304 | 38202 ft | 472 kts | 139° |
| 2026-05-04 19:45 | 39.16539 | 26.07984 | 37851 ft | 469 kts | 138° |
| 2026-05-04 19:45 | 39.14068 | 26.10618 | 37295 ft | 469 kts | 138° |
| 2026-05-04 19:45 | 39.11556 | 26.13298 | 36650 ft | 470 kts | 138° |
| 2026-05-04 19:46 | 39.09013 | 26.16011 | 36058 ft | 472 kts | 138° |
| 2026-05-04 19:46 | 39.06506 | 26.18687 | 35609 ft | 471 kts | 137° |
| 2026-05-04 19:46 | 39.04033 | 26.21321 | 35442 ft | 460 kts | 137° |
| 2026-05-04 19:46 | 39.01579 | 26.23933 | 35023 ft | 458 kts | 137° |
| 2026-05-04 19:47 | 38.99130 | 26.26541 | 34630 ft | 453 kts | 137° |
| 2026-05-04 19:47 | 38.96934 | 26.28875 | 34132 ft | 450 kts | 137° |
| 2026-05-04 19:47 | 38.94527 | 26.31434 | 33546 ft | 447 kts | 137° |
| 2026-05-04 19:47 | 38.92153 | 26.33955 | 33069 ft | 442 kts | 136° |
| 2026-05-04 19:48 | 38.89788 | 26.36465 | 32484 ft | 439 kts | 136° |
| 2026-05-04 19:48 | 38.87462 | 26.38969 | 31942 ft | 434 kts | 134° |
| 2026-05-04 19:48 | 38.85350 | 26.41668 | 31408 ft | 426 kts | 126° |
| 2026-05-04 19:48 | 38.83695 | 26.44697 | 30862 ft | 416 kts | 114° |
| 2026-05-04 19:49 | 38.82542 | 26.48033 | 30360 ft | 405 kts | 104° |
| 2026-05-04 19:49 | 38.81715 | 26.51464 | 29732 ft | 401 kts | 100° |
| 2026-05-04 19:49 | 38.81020 | 26.54894 | 29233 ft | 396 kts | 98° |
| 2026-05-04 19:49 | 38.80384 | 26.58272 | 28700 ft | 392 kts | 97° |
| 2026-05-04 19:50 | 38.79758 | 26.61690 | 28149 ft | 389 kts | 97° |
| 2026-05-04 19:50 | 38.79150 | 26.65006 | 27557 ft | 387 kts | 97° |
| 2026-05-04 19:50 | 38.78531 | 26.68333 | 27086 ft | 383 kts | 98° |
| 2026-05-04 19:50 | 38.77913 | 26.71608 | 26524 ft | 381 kts | 98° |
| 2026-05-04 19:51 | 38.77286 | 26.74903 | 25979 ft | 378 kts | 98° |
| 2026-05-04 19:51 | 38.76666 | 26.78135 | 25463 ft | 375 kts | 98° |
| 2026-05-04 19:51 | 38.76044 | 26.81359 | 24944 ft | 373 kts | 98° |
| 2026-05-04 19:51 | 38.75425 | 26.84557 | 24437 ft | 370 kts | 98° |
| 2026-05-04 19:52 | 38.74810 | 26.87729 | 23950 ft | 367 kts | 98° |
| 2026-05-04 19:52 | 38.74198 | 26.90886 | 23437 ft | 365 kts | 97° |
| 2026-05-04 19:52 | 38.73591 | 26.94011 | 22969 ft | 362 kts | 97° |
| 2026-05-04 19:52 | 38.72987 | 26.97122 | 22468 ft | 359 kts | 97° |
| 2026-05-04 19:53 | 38.72389 | 27.00192 | 21923 ft | 359 kts | 97° |
| 2026-05-04 19:53 | 38.71783 | 27.03293 | 21423 ft | 357 kts | 97° |
| 2026-05-04 19:53 | 38.71189 | 27.06332 | 20934 ft | 355 kts | 97° |
| 2026-05-04 19:53 | 38.70513 | 27.09377 | 20443 ft | 356 kts | 102° |
| 2026-05-04 19:54 | 38.69492 | 27.12256 | 19911 ft | 365 kts | 116° |
| 2026-05-04 19:54 | 38.67880 | 27.14803 | 19442 ft | 371 kts | 130° |
| 2026-05-04 19:54 | 38.65865 | 27.16842 | 18979 ft | 374 kts | 142° |
| 2026-05-04 19:54 | 38.63601 | 27.18487 | 18652 ft | 369 kts | 152° |
| 2026-05-04 19:55 | 38.61176 | 27.19488 | 18325 ft | 367 kts | 167° |
| 2026-05-04 19:55 | 38.58623 | 27.19696 | 17847 ft | 368 kts | 184° |
| 2026-05-04 19:55 | 38.56121 | 27.19245 | 17424 ft | 366 kts | 193° |
| 2026-05-04 19:55 | 38.53675 | 27.18499 | 17063 ft | 361 kts | 196° |
| 2026-05-04 19:56 | 38.51260 | 27.17656 | 16627 ft | 360 kts | 197° |
| 2026-05-04 19:56 | 38.48851 | 27.16781 | 16223 ft | 357 kts | 198° |
| 2026-05-04 19:56 | 38.46477 | 27.15919 | 15832 ft | 354 kts | 198° |
| 2026-05-04 19:56 | 38.44123 | 27.15072 | 15408 ft | 351 kts | 198° |
| 2026-05-04 19:57 | 38.41783 | 27.14238 | 14843 ft | 348 kts | 198° |
| 2026-05-04 19:57 | 38.39475 | 27.13422 | 14264 ft | 345 kts | 198° |
| 2026-05-04 19:57 | 38.37177 | 27.12613 | 13707 ft | 339 kts | 198° |
| 2026-05-04 19:57 | 38.34893 | 27.11811 | 13050 ft | 339 kts | 198° |
| 2026-05-04 19:58 | 38.32645 | 27.11021 | 12466 ft | 336 kts | 198° |
| 2026-05-04 19:58 | 38.30398 | 27.10231 | 11845 ft | 334 kts | 197° |
| 2026-05-04 19:58 | 38.28192 | 27.09453 | 11329 ft | 328 kts | 197° |
| 2026-05-04 19:58 | 38.26032 | 27.08694 | 10989 ft | 318 kts | 197° |
| 2026-05-04 19:59 | 38.23909 | 27.07950 | 10436 ft | 317 kts | 197° |
| 2026-05-04 19:59 | 38.21762 | 27.07361 | 9981 ft | 312 kts | 186° |
| 2026-05-04 19:59 | 38.19655 | 27.07424 | 9722 ft | 299 kts | 168° |
| 2026-05-04 19:59 | 38.17631 | 27.08012 | 9189 ft | 297 kts | 161° |
| 2026-05-04 20:00 | 38.15654 | 27.08741 | 8750 ft | 293 kts | 161° |
| 2026-05-04 20:00 | 38.13705 | 27.09426 | 8284 ft | 291 kts | 162° |
| 2026-05-04 20:00 | 38.11751 | 27.10045 | 7849 ft | 287 kts | 163° |
| 2026-05-04 20:00 | 38.09843 | 27.10636 | 7365 ft | 285 kts | 163° |
| 2026-05-04 20:01 | 38.07913 | 27.11232 | 6917 ft | 282 kts | 163° |
| 2026-05-04 20:01 | 38.06047 | 27.11804 | 6581 ft | 275 kts | 163° |
| 2026-05-04 20:01 | 38.04210 | 27.12368 | 6227 ft | 269 kts | 163° |
| 2026-05-04 20:01 | 38.02445 | 27.13063 | 5825 ft | 263 kts | 146° |
| 2026-05-04 20:02 | 38.01197 | 27.14605 | 5385 ft | 246 kts | 108° |
| 2026-05-04 20:02 | 38.00932 | 27.16651 | 4895 ft | 230 kts | 75° |
| 2026-05-04 20:02 | 38.01276 | 27.18577 | 4490 ft | 223 kts | 65° |
| 2026-05-04 20:02 | 38.02047 | 27.20204 | 4105 ft | 211 kts | 41° |
| 2026-05-04 20:03 | 38.03105 | 27.21419 | 4041 ft | 196 kts | 35° |
| 2026-05-04 20:03 | 38.04177 | 27.22328 | 3982 ft | 179 kts | 18° |
| 2026-05-04 20:03 | 38.05360 | 27.22500 | 4006 ft | 165 kts | 356° |
| 2026-05-04 20:03 | 38.06446 | 27.22339 | 3988 ft | 152 kts | 353° |
| 2026-05-04 20:04 | 38.07462 | 27.22119 | 4005 ft | 145 kts | 350° |
| 2026-05-04 20:04 | 38.08470 | 27.21857 | 4013 ft | 146 kts | 349° |
| 2026-05-04 20:04 | 38.09442 | 27.21584 | 3989 ft | 140 kts | 349° |
| 2026-05-04 20:04 | 38.10387 | 27.21309 | 3959 ft | 140 kts | 348° |
| 2026-05-04 20:05 | 38.11343 | 27.21030 | 3781 ft | 143 kts | 348° |
| 2026-05-04 20:05 | 38.12315 | 27.20743 | 3541 ft | 141 kts | 348° |
| 2026-05-04 20:05 | 38.13262 | 27.20461 | 3359 ft | 138 kts | 347° |
| 2026-05-04 20:05 | 38.14195 | 27.20183 | 3203 ft | 140 kts | 347° |
| 2026-05-04 20:06 | 38.15153 | 27.19898 | 2969 ft | 140 kts | 347° |
| 2026-05-04 20:06 | 38.16074 | 27.19622 | 2795 ft | 132 kts | 347° |
| 2026-05-04 20:06 | 38.16977 | 27.19354 | 2589 ft | 131 kts | 347° |
| 2026-05-04 20:06 | 38.17851 | 27.19093 | 2403 ft | 126 kts | 347° |
| 2026-05-04 20:07 | 38.18704 | 27.18837 | 2245 ft | 129 kts | 346° |
| 2026-05-04 20:07 | 38.19585 | 27.18576 | 2061 ft | 129 kts | 346° |
| 2026-05-04 20:07 | 38.20468 | 27.18315 | 1884 ft | 130 kts | 346° |
| 2026-05-04 20:07 | 38.21346 | 27.18035 | 1708 ft | 130 kts | 345° |
| 2026-05-04 20:08 | 38.22228 | 27.17757 | 1532 ft | 132 kts | 347° |
| 2026-05-04 20:08 | 38.23118 | 27.17525 | 1351 ft | 132 kts | 348° |
| 2026-05-04 20:08 | 38.24022 | 27.17279 | 1191 ft | 132 kts | 346° |
| 2026-05-04 20:08 | 38.24902 | 27.17003 | 1013 ft | 126 kts | 345° |
| 2026-05-04 20:09 | 38.25766 | 27.16751 | 820 ft | 127 kts | 348° |
| 2026-05-04 20:09 | 38.26635 | 27.16483 | 666 ft | 129 kts | 347° |
| 2026-05-04 20:09 | 38.27515 | 27.16212 | 477 ft | 132 kts | 347° |
| 2026-05-04 20:09 | 38.28404 | 27.15944 | 394 ft | 121 kts | 347° |
| 2026-05-04 20:10 | 38.29028 | 27.15760 | 401 ft | 60 kts | 348° |
| 2026-05-04 20:10 | 38.29431 | 27.15635 | 406 ft | 56 kts | 347° |
| 2026-05-04 20:10 | 38.29722 | 27.15534 | 410 ft | 26 kts | 336° |
| 2026-05-04 20:10 | 38.29851 | 27.15419 | 411 ft | 20 kts | 319° |
| 2026-05-04 20:11 | 38.29954 | 27.15298 | 412 ft | 19 kts | 314° |
| 2026-05-04 20:11 | 38.29979 | 27.15159 | 411 ft | 16 kts | 254° |
| 2026-05-04 20:11 | 38.29950 | 27.15010 | 408 ft | 14 kts | 257° |
| 2026-05-04 20:11 | 38.29883 | 27.14966 | 405 ft | 14 kts | 169° |
| 2026-05-04 20:12 | 38.29768 | 27.15001 | 396 ft | 19 kts | 166° |
| 2026-05-04 20:12 | 38.29624 | 27.15042 | 390 ft | 22 kts | 167° |
| 2026-05-04 20:12 | 38.29479 | 27.15087 | 392 ft | 20 kts | 166° |
| 2026-05-04 20:12 | 38.29422 | 27.15124 | 393 ft | 4 kts | 99° |
| 2026-05-04 20:13 | 38.29424 | 27.15161 | 394 ft | 3 kts | 81° |
| 2026-05-04 20:13 | 38.29428 | 27.15185 | 395 ft | 1 kts | 77° |
| 2026-05-04 20:13 | 38.29429 | 27.15191 | 395 ft | 0 kts | 76° |
| 2026-05-04 20:40 | 38.29429 | 27.15188 | 396 ft | 1 kts | 77° |
| 2026-05-04 20:40 | 38.29425 | 27.15170 | 395 ft | 2 kts | 76° |
| 2026-05-04 20:40 | 38.29422 | 27.15151 | 395 ft | 2 kts | 77° |
| 2026-05-04 20:41 | 38.29418 | 27.15132 | 394 ft | 2 kts | 92° |
| 2026-05-04 20:41 | 38.29423 | 27.15114 | 394 ft | 2 kts | 125° |
| 2026-05-04 20:41 | 38.29434 | 27.15101 | 394 ft | 2 kts | 156° |
| 2026-05-04 20:41 | 38.29440 | 27.15099 | 394 ft | 1 kts | 172° |
| 2026-05-04 20:42 | 38.29445 | 27.15098 | 394 ft | 0 kts | 167° |
| 2026-05-04 20:44 | 38.29417 | 27.15106 | 394 ft | 8 kts | 167° |
| 2026-05-04 20:44 | 38.29347 | 27.15144 | 398 ft | 9 kts | 109° |
| 2026-05-04 20:45 | 38.29350 | 27.15214 | 398 ft | 7 kts | 75° |
| 2026-05-04 20:45 | 38.29365 | 27.15287 | 399 ft | 8 kts | 74° |
| 2026-05-04 20:45 | 38.29379 | 27.15363 | 401 ft | 10 kts | 77° |
| 2026-05-04 20:45 | 38.29348 | 27.15446 | 402 ft | 13 kts | 159° |
| 2026-05-04 20:46 | 38.29242 | 27.15478 | 403 ft | 18 kts | 167° |
| 2026-05-04 20:46 | 38.29095 | 27.15522 | 403 ft | 24 kts | 166° |
| 2026-05-04 20:46 | 38.28930 | 27.15572 | 402 ft | 24 kts | 166° |
| 2026-05-04 20:46 | 38.28767 | 27.15622 | 400 ft | 24 kts | 166° |
| 2026-05-04 20:47 | 38.28605 | 27.15671 | 400 ft | 23 kts | 166° |
| 2026-05-04 20:47 | 38.28442 | 27.15719 | 397 ft | 24 kts | 166° |
| 2026-05-04 20:47 | 38.28270 | 27.15770 | 392 ft | 25 kts | 167° |
| 2026-05-04 20:47 | 38.28092 | 27.15825 | 386 ft | 27 kts | 167° |
| 2026-05-04 20:48 | 38.27898 | 27.15881 | 379 ft | 20 kts | 167° |
| 2026-05-04 20:48 | 38.27803 | 27.15962 | 377 ft | 17 kts | 96° |
| 2026-05-04 20:48 | 38.27842 | 27.16099 | 375 ft | 16 kts | 30° |
| 2026-05-04 20:48 | 38.27916 | 27.16093 | 376 ft | 0 kts | 346° |
| 2026-05-04 20:49 | 38.27918 | 27.16093 | 376 ft | 0 kts | 346° |
| 2026-05-04 20:49 | 38.27983 | 27.16072 | 379 ft | 39 kts | 345° |
| 2026-05-04 20:49 | 38.28549 | 27.15894 | 396 ft | 125 kts | 347° |
| 2026-05-04 20:50 | 38.29604 | 27.15590 | 646 ft | 174 kts | 348° |
| 2026-05-04 20:50 | 38.30830 | 27.15310 | 1597 ft | 186 kts | 351° |
| 2026-05-04 20:50 | 38.32106 | 27.15099 | 2561 ft | 190 kts | 352° |